Terminal Aerodrome Forecast
Issued by NWS North Platte, NE

Home | Current Version | Previous Version | Text Only | Print | Product List | Glossary On
Versions: 1 2 3 4 5 6 7 8 9 10 11 12 13 14
077
FTUS43 KLBF 300537
TAFVTN
TAF
KVTN 300537Z 3006/3106 16009KT P6SM BKN150
     FM301300 18011KT P6SM FEW150
     FM302100 22013KT P6SM SCT100 PROB30 3021/3024 P6SM -TSRA
      BKN050CB
     FM310000 30009KT P6SM -TSRA BKN050CB=

USA.gov is the U.S. government's official web portal to all federal, state and local government web resources and services.